sensor_id;sensor_type;location;lat;lon;timestamp;pressure;altitude;pressure_sealevel;temperature;humidity
47742;BME280;33504;52.066;6.096;2022-12-26T00:02:20;100882.92;;;11.77;53.63
47742;BME280;33504;52.066;6.096;2022-12-26T00:04:47;100892.82;;;11.78;53.66
47742;BME280;33504;52.066;6.096;2022-12-26T00:07:14;100897.05;;;11.84;53.62
47742;BME280;33504;52.066;6.096;2022-12-26T00:09:42;100896.22;;;11.90;53.52
47742;BME280;33504;52.066;6.096;2022-12-26T00:12:09;100896.07;;;11.44;53.98
47742;BME280;33504;52.066;6.096;2022-12-26T00:14:36;100889.70;;;11.94;53.53
47742;BME280;33504;52.066;6.096;2022-12-26T00:17:04;100890.25;;;11.99;53.50
47742;BME280;33504;52.066;6.096;2022-12-26T00:19:32;100894.48;;;12.05;53.33
47742;BME280;33504;52.066;6.096;2022-12-26T00:21:59;100899.80;;;11.39;54.11
47742;BME280;33504;52.066;6.096;2022-12-26T00:24:26;100895.59;;;11.34;54.13
47742;BME280;33504;52.066;6.096;2022-12-26T00:26:53;100895.23;;;11.56;54.26
47742;BME280;33504;52.066;6.096;2022-12-26T00:29:20;100895.17;;;11.89;53.81
47742;BME280;33504;52.066;6.096;2022-12-26T00:31:47;100895.90;;;11.66;54.09
47742;BME280;33504;52.066;6.096;2022-12-26T00:34:14;100891.14;;;11.64;54.12
47742;BME280;33504;52.066;6.096;2022-12-26T00:36:41;100891.49;;;11.82;53.85
47742;BME280;33504;52.066;6.096;2022-12-26T00:39:09;100894.07;;;11.45;54.11
47742;BME280;33504;52.066;6.096;2022-12-26T00:41:35;100887.30;;;11.54;53.96
47742;BME280;33504;52.066;6.096;2022-12-26T00:44:02;100894.43;;;11.91;53.75
47742;BME280;33504;52.066;6.096;2022-12-26T00:46:29;100912.18;;;11.66;54.01
47742;BME280;33504;52.066;6.096;2022-12-26T00:48:56;100911.25;;;11.32;54.58
47742;BME280;33504;52.066;6.096;2022-12-26T00:51:23;100907.81;;;11.53;54.39
47742;BME280;33504;52.066;6.096;2022-12-26T00:53:50;100909.59;;;11.36;54.76
47742;BME280;33504;52.066;6.096;2022-12-26T00:56:17;100904.63;;;11.49;54.51
47742;BME280;33504;52.066;6.096;2022-12-26T00:58:45;100910.03;;;11.68;54.24
47742;BME280;33504;52.066;6.096;2022-12-26T01:01:14;100918.34;;;11.42;54.16
47742;BME280;33504;52.066;6.096;2022-12-26T01:03:44;100927.17;;;11.05;54.99
47742;BME280;33504;52.066;6.096;2022-12-26T01:06:12;100920.15;;;11.21;54.97
47742;BME280;33504;52.066;6.096;2022-12-26T01:08:39;100923.07;;;11.36;54.39
47742;BME280;33504;52.066;6.096;2022-12-26T01:11:09;100927.24;;;11.59;54.34
47742;BME280;33504;52.066;6.096;2022-12-26T01:13:37;100919.49;;;11.56;54.46
47742;BME280;33504;52.066;6.096;2022-12-26T01:16:06;100927.85;;;11.44;54.79
47742;BME280;33504;52.066;6.096;2022-12-26T01:18:34;100929.86;;;11.45;54.72
47742;BME280;33504;52.066;6.096;2022-12-26T01:21:04;100930.91;;;11.49;54.76
47742;BME280;33504;52.066;6.096;2022-12-26T01:23:31;100933.00;;;11.57;54.67
47742;BME280;33504;52.066;6.096;2022-12-26T01:25:58;100943.93;;;11.53;54.86
47742;BME280;33504;52.066;6.096;2022-12-26T01:28:25;100949.04;;;11.61;54.64
47742;BME280;33504;52.066;6.096;2022-12-26T01:30:53;100945.10;;;11.12;55.09
47742;BME280;33504;52.066;6.096;2022-12-26T01:33:20;100945.07;;;11.27;55.25
47742;BME280;33504;52.066;6.096;2022-12-26T01:35:49;100949.75;;;11.57;54.76
47742;BME280;33504;52.066;6.096;2022-12-26T01:38:17;100954.81;;;11.67;54.37
47742;BME280;33504;52.066;6.096;2022-12-26T01:40:45;100950.05;;;11.23;55.28
47742;BME280;33504;52.066;6.096;2022-12-26T01:43:14;100943.36;;;11.46;54.92
47742;BME280;33504;52.066;6.096;2022-12-26T01:45:44;100936.10;;;11.48;54.81
47742;BME280;33504;52.066;6.096;2022-12-26T01:48:19;100937.66;;;11.49;54.66
47742;BME280;33504;52.066;6.096;2022-12-26T01:50:50;100940.16;;;11.55;54.52
47742;BME280;33504;52.066;6.096;2022-12-26T01:53:21;100936.40;;;11.69;54.39
47742;BME280;33504;52.066;6.096;2022-12-26T01:55:55;100925.45;;;11.61;54.56
47742;BME280;33504;52.066;6.096;2022-12-26T01:58:28;100917.20;;;11.64;54.50
47742;BME280;33504;52.066;6.096;2022-12-26T02:00:58;100920.11;;;11.38;54.48
47742;BME280;33504;52.066;6.096;2022-12-26T02:03:27;100923.09;;;11.68;54.37
47742;BME280;33504;52.066;6.096;2022-12-26T02:05:56;100926.75;;;11.50;54.02
47742;BME280;33504;52.066;6.096;2022-12-26T02:08:28;100930.38;;;11.95;53.77
47742;BME280;33504;52.066;6.096;2022-12-26T02:11:02;100929.52;;;11.71;54.15
47742;BME280;33504;52.066;6.096;2022-12-26T02:13:34;100932.22;;;11.63;54.34
47742;BME280;33504;52.066;6.096;2022-12-26T02:16:02;100938.39;;;11.62;54.19
47742;BME280;33504;52.066;6.096;2022-12-26T02:18:30;100943.21;;;11.79;54.01
47742;BME280;33504;52.066;6.096;2022-12-26T02:21:06;100937.04;;;11.65;54.06
47742;BME280;33504;52.066;6.096;2022-12-26T02:23:53;100933.65;;;11.72;53.65
47742;BME280;33504;52.066;6.096;2022-12-26T02:27:25;100937.52;;;12.43;53.55
47742;BME280;33504;52.066;6.096;2022-12-26T02:30:06;100938.66;;;11.85;53.62
47742;BME280;33504;52.066;6.096;2022-12-26T02:33:30;100944.93;;;12.42;53.75
47742;BME280;33504;52.066;6.096;2022-12-26T02:36:25;100942.78;;;11.54;53.69
47742;BME280;33504;52.066;6.096;2022-12-26T02:39:09;100938.96;;;11.30;54.10
47742;BME280;33504;52.066;6.096;2022-12-26T02:41:45;100939.91;;;11.57;53.85
47742;BME280;33504;52.066;6.096;2022-12-26T02:44:19;100936.71;;;11.64;53.77
47742;BME280;33504;52.066;6.096;2022-12-26T02:46:50;100941.01;;;11.60;53.78
47742;BME280;33504;52.066;6.096;2022-12-26T02:49:26;100939.23;;;11.62;53.79
47742;BME280;33504;52.066;6.096;2022-12-26T02:52:03;100937.60;;;11.47;53.68
47742;BME280;33504;52.066;6.096;2022-12-26T02:54:37;100943.20;;;11.84;53.50
47742;BME280;33504;52.066;6.096;2022-12-26T02:57:12;100946.44;;;11.78;53.54
47742;BME280;33504;52.066;6.096;2022-12-26T02:59:48;100944.54;;;11.72;53.66
47742;BME280;33504;52.066;6.096;2022-12-26T03:02:24;100940.50;;;11.53;53.87
47742;BME280;33504;52.066;6.096;2022-12-26T03:04:55;100945.18;;;11.51;53.53
47742;BME280;33504;52.066;6.096;2022-12-26T03:07:26;100947.65;;;11.85;53.35
47742;BME280;33504;52.066;6.096;2022-12-26T03:09:55;100947.02;;;11.56;53.76
47742;BME280;33504;52.066;6.096;2022-12-26T03:12:42;100954.28;;;11.33;53.76
47742;BME280;33504;52.066;6.096;2022-12-26T03:15:14;100953.05;;;11.49;53.86
47742;BME280;33504;52.066;6.096;2022-12-26T03:17:47;100948.70;;;11.39;54.07
47742;BME280;33504;52.066;6.096;2022-12-26T03:20:17;100942.33;;;11.68;53.44
47742;BME280;33504;52.066;6.096;2022-12-26T03:22:48;100942.80;;;11.79;53.26
47742;BME280;33504;52.066;6.096;2022-12-26T03:25:22;100941.84;;;11.33;53.86
47742;BME280;33504;52.066;6.096;2022-12-26T03:27:50;100940.73;;;11.56;53.42
47742;BME280;33504;52.066;6.096;2022-12-26T03:30:17;100939.73;;;11.58;53.40
47742;BME280;33504;52.066;6.096;2022-12-26T03:32:44;100934.42;;;11.41;53.60
47742;BME280;33504;52.066;6.096;2022-12-26T03:35:12;100940.59;;;11.13;54.16
47742;BME280;33504;52.066;6.096;2022-12-26T03:37:46;100938.38;;;10.89;54.47
47742;BME280;33504;52.066;6.096;2022-12-26T03:40:35;100930.92;;;10.55;54.64
47742;BME280;33504;52.066;6.096;2022-12-26T03:43:12;100938.03;;;11.05;53.77
47742;BME280;33504;52.066;6.096;2022-12-26T03:45:49;100938.98;;;10.83;54.09
47742;BME280;33504;52.066;6.096;2022-12-26T03:48:21;100929.67;;;10.75;54.13
47742;BME280;33504;52.066;6.096;2022-12-26T03:50:58;100925.33;;;11.05;53.65
47742;BME280;33504;52.066;6.096;2022-12-26T03:53:32;100926.08;;;11.18;53.40
47742;BME280;33504;52.066;6.096;2022-12-26T03:56:05;100934.58;;;11.13;53.37
47742;BME280;33504;52.066;6.096;2022-12-26T03:58:39;100938.64;;;10.73;53.98
47742;BME280;33504;52.066;6.096;2022-12-26T04:01:10;100940.49;;;10.91;53.73
47742;BME280;33504;52.066;6.096;2022-12-26T04:03:42;100940.03;;;10.92;54.13
47742;BME280;33504;52.066;6.096;2022-12-26T04:06:15;100940.83;;;11.35;53.99
47742;BME280;33504;52.066;6.096;2022-12-26T04:08:48;100943.02;;;11.38;53.40
47742;BME280;33504;52.066;6.096;2022-12-26T04:11:17;100956.18;;;11.18;53.41
47742;BME280;33504;52.066;6.096;2022-12-26T04:13:51;100963.11;;;10.67;54.14
47742;BME280;33504;52.066;6.096;2022-12-26T04:16:26;100957.19;;;10.93;53.75
47742;BME280;33504;52.066;6.096;2022-12-26T04:19:01;100960.72;;;10.66;54.37
47742;BME280;33504;52.066;6.096;2022-12-26T04:21:38;100959.61;;;10.91;53.91
47742;BME280;33504;52.066;6.096;2022-12-26T04:24:13;100965.83;;;11.04;54.26
47742;BME280;33504;52.066;6.096;2022-12-26T04:26:43;100950.71;;;11.21;54.05
47742;BME280;33504;52.066;6.096;2022-12-26T04:29:13;100961.47;;;10.87;54.20
47742;BME280;33504;52.066;6.096;2022-12-26T04:31:44;100959.17;;;11.02;53.83
47742;BME280;33504;52.066;6.096;2022-12-26T04:34:19;100962.45;;;10.72;54.24
47742;BME280;33504;52.066;6.096;2022-12-26T04:36:51;100970.04;;;10.51;55.33
47742;BME280;33504;52.066;6.096;2022-12-26T04:39:27;100974.24;;;10.54;54.86
47742;BME280;33504;52.066;6.096;2022-12-26T04:41:56;100982.46;;;10.61;55.16
47742;BME280;33504;52.066;6.096;2022-12-26T04:44:25;100996.49;;;10.30;55.77
47742;BME280;33504;52.066;6.096;2022-12-26T04:46:55;100980.62;;;9.91;56.30
47742;BME280;33504;52.066;6.096;2022-12-26T04:49:22;100976.04;;;9.82;55.87
47742;BME280;33504;52.066;6.096;2022-12-26T04:51:49;100966.90;;;10.67;55.47
47742;BME280;33504;52.066;6.096;2022-12-26T04:54:17;100967.00;;;10.15;56.07
47742;BME280;33504;52.066;6.096;2022-12-26T04:56:45;100962.44;;;10.41;55.65
47742;BME280;33504;52.066;6.096;2022-12-26T04:59:12;100972.17;;;9.79;56.80
47742;BME280;33504;52.066;6.096;2022-12-26T05:01:40;100962.67;;;10.01;56.57
47742;BME280;33504;52.066;6.096;2022-12-26T05:04:11;100962.29;;;9.85;56.84
47742;BME280;33504;52.066;6.096;2022-12-26T05:06:38;100972.22;;;9.67;57.32
47742;BME280;33504;52.066;6.096;2022-12-26T05:09:07;100955.81;;;10.41;56.35
47742;BME280;33504;52.066;6.096;2022-12-26T05:11:35;100954.51;;;10.56;55.91
47742;BME280;33504;52.066;6.096;2022-12-26T05:14:02;100953.50;;;10.77;55.21
47742;BME280;33504;52.066;6.096;2022-12-26T05:16:30;100944.68;;;10.54;55.44
47742;BME280;33504;52.066;6.096;2022-12-26T05:18:57;100951.44;;;10.66;55.32
47742;BME280;33504;52.066;6.096;2022-12-26T05:21:24;100947.57;;;10.43;55.32
47742;BME280;33504;52.066;6.096;2022-12-26T05:23:51;100945.28;;;10.23;55.01
47742;BME280;33504;52.066;6.096;2022-12-26T05:26:21;100944.17;;;10.19;54.95
47742;BME280;33504;52.066;6.096;2022-12-26T05:28:54;100945.77;;;10.53;54.89
47742;BME280;33504;52.066;6.096;2022-12-26T05:31:22;100948.68;;;11.07;54.21
47742;BME280;33504;52.066;6.096;2022-12-26T05:33:49;100948.29;;;10.80;54.65
47742;BME280;33504;52.066;6.096;2022-12-26T05:36:18;100942.84;;;10.52;55.04
47742;BME280;33504;52.066;6.096;2022-12-26T05:38:46;100941.75;;;10.40;55.02
47742;BME280;33504;52.066;6.096;2022-12-26T05:41:13;100944.05;;;10.47;55.12
47742;BME280;33504;52.066;6.096;2022-12-26T05:43:40;100950.88;;;10.32;54.57
47742;BME280;33504;52.066;6.096;2022-12-26T05:46:07;100953.27;;;10.51;54.46
47742;BME280;33504;52.066;6.096;2022-12-26T05:48:34;100959.49;;;10.27;54.83
47742;BME280;33504;52.066;6.096;2022-12-26T05:51:02;100965.67;;;10.66;54.62
47742;BME280;33504;52.066;6.096;2022-12-26T05:53:30;100962.09;;;10.73;54.36
47742;BME280;33504;52.066;6.096;2022-12-26T05:56:02;100958.56;;;10.54;53.75
47742;BME280;33504;52.066;6.096;2022-12-26T05:58:29;100953.19;;;10.96;53.80
47742;BME280;33504;52.066;6.096;2022-12-26T06:01:04;100951.22;;;10.76;53.83
47742;BME280;33504;52.066;6.096;2022-12-26T06:03:30;100950.21;;;10.32;54.52
47742;BME280;33504;52.066;6.096;2022-12-26T06:05:58;100939.65;;;10.60;54.34
47742;BME280;33504;52.066;6.096;2022-12-26T06:08:25;100938.09;;;10.73;53.90
47742;BME280;33504;52.066;6.096;2022-12-26T06:10:52;100929.51;;;10.47;54.34
47742;BME280;33504;52.066;6.096;2022-12-26T06:13:19;100926.66;;;10.47;53.95
47742;BME280;33504;52.066;6.096;2022-12-26T06:15:46;100919.71;;;10.65;53.99
47742;BME280;33504;52.066;6.096;2022-12-26T06:18:14;100922.59;;;10.76;53.68
47742;BME280;33504;52.066;6.096;2022-12-26T06:20:41;100924.13;;;10.18;54.54
47742;BME280;33504;52.066;6.096;2022-12-26T06:23:08;100921.24;;;10.48;54.01
47742;BME280;33504;52.066;6.096;2022-12-26T06:25:36;100923.41;;;9.99;55.01
47742;BME280;33504;52.066;6.096;2022-12-26T06:28:03;100928.54;;;10.40;54.39
47742;BME280;33504;52.066;6.096;2022-12-26T06:30:30;100922.96;;;9.91;54.61
47742;BME280;33504;52.066;6.096;2022-12-26T06:32:57;100922.80;;;10.33;54.35
47742;BME280;33504;52.066;6.096;2022-12-26T06:35:24;100924.08;;;10.38;54.18
47742;BME280;33504;52.066;6.096;2022-12-26T06:37:51;100928.61;;;9.94;54.89
47742;BME280;33504;52.066;6.096;2022-12-26T06:40:18;100930.16;;;9.91;54.61
47742;BME280;33504;52.066;6.096;2022-12-26T06:42:46;100933.39;;;10.13;54.46
47742;BME280;33504;52.066;6.096;2022-12-26T06:45:13;100927.50;;;9.91;54.98
47742;BME280;33504;52.066;6.096;2022-12-26T06:47:40;100935.61;;;10.18;54.38
47742;BME280;33504;52.066;6.096;2022-12-26T06:50:07;100931.11;;;10.32;54.11
47742;BME280;33504;52.066;6.096;2022-12-26T06:52:35;100932.74;;;10.19;54.26
47742;BME280;33504;52.066;6.096;2022-12-26T06:55:02;100939.97;;;10.11;54.31
47742;BME280;33504;52.066;6.096;2022-12-26T06:57:28;100950.45;;;9.78;54.58
47742;BME280;33504;52.066;6.096;2022-12-26T06:59:55;100956.20;;;10.51;54.23
47742;BME280;33504;52.066;6.096;2022-12-26T07:02:22;100961.09;;;10.13;54.41
47742;BME280;33504;52.066;6.096;2022-12-26T07:04:49;100958.52;;;10.06;54.60
47742;BME280;33504;52.066;6.096;2022-12-26T07:07:16;100963.86;;;9.69;55.76
47742;BME280;33504;52.066;6.096;2022-12-26T07:09:43;100964.32;;;9.58;56.08
47742;BME280;33504;52.066;6.096;2022-12-26T07:12:11;100969.41;;;9.66;55.71
47742;BME280;33504;52.066;6.096;2022-12-26T07:14:38;100959.65;;;9.76;55.48
47742;BME280;33504;52.066;6.096;2022-12-26T07:17:04;100961.49;;;9.71;55.51
47742;BME280;33504;52.066;6.096;2022-12-26T07:19:32;100958.00;;;9.86;55.07
47742;BME280;33504;52.066;6.096;2022-12-26T07:21:59;100952.82;;;9.89;55.15
47742;BME280;33504;52.066;6.096;2022-12-26T07:24:26;100960.24;;;9.88;55.60
47742;BME280;33504;52.066;6.096;2022-12-26T07:26:53;100970.10;;;9.88;55.56
47742;BME280;33504;52.066;6.096;2022-12-26T07:29:20;100967.74;;;9.89;55.13
47742;BME280;33504;52.066;6.096;2022-12-26T07:31:48;100971.82;;;9.77;55.27
47742;BME280;33504;52.066;6.096;2022-12-26T07:34:15;100976.24;;;10.19;55.58
47742;BME280;33504;52.066;6.096;2022-12-26T07:36:42;100981.49;;;9.48;56.50
47742;BME280;33504;52.066;6.096;2022-12-26T07:39:12;100987.28;;;9.44;56.64
47742;BME280;33504;52.066;6.096;2022-12-26T07:41:39;100979.43;;;9.45;56.64
47742;BME280;33504;52.066;6.096;2022-12-26T07:44:07;100979.95;;;9.62;56.22
47742;BME280;33504;52.066;6.096;2022-12-26T07:46:34;100983.04;;;9.76;56.02
47742;BME280;33504;52.066;6.096;2022-12-26T07:49:02;100981.25;;;9.92;55.52
47742;BME280;33504;52.066;6.096;2022-12-26T07:51:29;100974.92;;;9.80;55.95
47742;BME280;33504;52.066;6.096;2022-12-26T07:53:56;100975.89;;;9.60;56.15
47742;BME280;33504;52.066;6.096;2022-12-26T07:56:24;100963.27;;;9.78;55.85
47742;BME280;33504;52.066;6.096;2022-12-26T07:58:51;100967.69;;;9.38;56.63
47742;BME280;33504;52.066;6.096;2022-12-26T08:01:18;100971.59;;;9.93;56.07
47742;BME280;33504;52.066;6.096;2022-12-26T08:03:47;100972.97;;;9.88;55.57
47742;BME280;33504;52.066;6.096;2022-12-26T08:06:14;100972.89;;;9.66;55.49
47742;BME280;33504;52.066;6.096;2022-12-26T08:08:40;100964.79;;;9.32;56.15
47742;BME280;33504;52.066;6.096;2022-12-26T08:11:09;100976.98;;;9.52;55.87
47742;BME280;33504;52.066;6.096;2022-12-26T08:13:40;100976.77;;;10.04;54.86
47742;BME280;33504;52.066;6.096;2022-12-26T08:16:10;100982.39;;;9.62;55.47
47742;BME280;33504;52.066;6.096;2022-12-26T08:18:38;100977.33;;;9.98;54.93
47742;BME280;33504;52.066;6.096;2022-12-26T08:21:05;100981.69;;;9.52;55.64
47742;BME280;33504;52.066;6.096;2022-12-26T08:23:32;100983.11;;;9.77;55.16
47742;BME280;33504;52.066;6.096;2022-12-26T08:26:03;100993.87;;;9.91;55.38
47742;BME280;33504;52.066;6.096;2022-12-26T08:28:30;100979.24;;;10.14;55.00
47742;BME280;33504;52.066;6.096;2022-12-26T08:30:57;100989.81;;;9.88;54.95
47742;BME280;33504;52.066;6.096;2022-12-26T08:33:24;100988.40;;;9.72;55.32
47742;BME280;33504;52.066;6.096;2022-12-26T08:35:51;100992.49;;;9.72;55.37
47742;BME280;33504;52.066;6.096;2022-12-26T08:38:18;100988.01;;;10.07;54.72
47742;BME280;33504;52.066;6.096;2022-12-26T08:40:52;100974.13;;;10.02;54.60
47742;BME280;33504;52.066;6.096;2022-12-26T08:43:19;100982.47;;;10.10;54.46
47742;BME280;33504;52.066;6.096;2022-12-26T08:45:47;100970.43;;;10.06;54.71
47742;BME280;33504;52.066;6.096;2022-12-26T08:48:15;100973.45;;;10.39;54.00
47742;BME280;33504;52.066;6.096;2022-12-26T08:50:42;100967.92;;;9.93;55.47
47742;BME280;33504;52.066;6.096;2022-12-26T08:53:09;100979.06;;;9.64;55.72
47742;BME280;33504;52.066;6.096;2022-12-26T08:55:36;100974.61;;;9.99;54.77
47742;BME280;33504;52.066;6.096;2022-12-26T08:58:03;100974.07;;;10.21;54.94
47742;BME280;33504;52.066;6.096;2022-12-26T09:00:29;100984.78;;;10.13;54.87
47742;BME280;33504;52.066;6.096;2022-12-26T09:02:57;100983.06;;;10.73;53.89
47742;BME280;33504;52.066;6.096;2022-12-26T09:05:23;100983.95;;;11.16;53.38
47742;BME280;33504;52.066;6.096;2022-12-26T09:07:50;100975.62;;;10.09;54.84
47742;BME280;33504;52.066;6.096;2022-12-26T09:10:17;100983.96;;;10.37;54.61
47742;BME280;33504;52.066;6.096;2022-12-26T09:12:44;100993.35;;;10.51;54.13
47742;BME280;33504;52.066;6.096;2022-12-26T09:15:11;100975.97;;;10.48;54.22
47742;BME280;33504;52.066;6.096;2022-12-26T09:17:38;100999.03;;;10.83;53.95
47742;BME280;33504;52.066;6.096;2022-12-26T09:20:06;100992.85;;;10.55;53.96
47742;BME280;33504;52.066;6.096;2022-12-26T09:22:33;101001.88;;;10.43;53.90
47742;BME280;33504;52.066;6.096;2022-12-26T09:25:00;101002.91;;;10.70;53.84
47742;BME280;33504;52.066;6.096;2022-12-26T09:27:27;100992.89;;;10.97;53.11
47742;BME280;33504;52.066;6.096;2022-12-26T09:29:54;100995.60;;;10.71;53.28
47742;BME280;33504;52.066;6.096;2022-12-26T09:32:21;101003.17;;;10.77;53.27
47742;BME280;33504;52.066;6.096;2022-12-26T09:34:48;100996.58;;;11.08;53.08
47742;BME280;33504;52.066;6.096;2022-12-26T09:37:14;101009.49;;;10.36;53.86
47742;BME280;33504;52.066;6.096;2022-12-26T09:39:41;101019.89;;;10.55;54.11
47742;BME280;33504;52.066;6.096;2022-12-26T09:42:17;101021.33;;;10.74;53.38
47742;BME280;33504;52.066;6.096;2022-12-26T09:44:57;101036.06;;;11.22;52.95
47742;BME280;33504;52.066;6.096;2022-12-26T09:47:31;101032.27;;;10.56;53.93
47742;BME280;33504;52.066;6.096;2022-12-26T09:50:03;101038.57;;;10.88;54.16
47742;BME280;33504;52.066;6.096;2022-12-26T09:52:39;101027.72;;;11.07;54.11
47742;BME280;33504;52.066;6.096;2022-12-26T09:55:23;101047.61;;;10.45;53.93
47742;BME280;33504;52.066;6.096;2022-12-26T09:57:52;101039.58;;;10.79;53.95
47742;BME280;33504;52.066;6.096;2022-12-26T10:00:24;101044.44;;;10.54;54.12
47742;BME280;33504;52.066;6.096;2022-12-26T10:02:54;101056.94;;;11.12;54.13
47742;BME280;33504;52.066;6.096;2022-12-26T10:05:25;101074.46;;;10.47;55.21
47742;BME280;33504;52.066;6.096;2022-12-26T10:07:58;101069.58;;;10.67;55.61
47742;BME280;33504;52.066;6.096;2022-12-26T10:10:31;101069.03;;;10.88;54.91
47742;BME280;33504;52.066;6.096;2022-12-26T10:13:09;101081.82;;;10.95;55.28
47742;BME280;33504;52.066;6.096;2022-12-26T10:15:44;101090.93;;;10.89;55.26
47742;BME280;33504;52.066;6.096;2022-12-26T10:18:23;101101.98;;;10.11;56.05
47742;BME280;33504;52.066;6.096;2022-12-26T10:21:05;101110.99;;;10.84;55.63
47742;BME280;33504;52.066;6.096;2022-12-26T10:23:37;101116.85;;;11.34;54.67
47742;BME280;33504;52.066;6.096;2022-12-26T10:26:10;101119.04;;;10.83;54.45
47742;BME280;33504;52.066;6.096;2022-12-26T10:28:42;101121.74;;;10.45;54.68
47742;BME280;33504;52.066;6.096;2022-12-26T10:31:17;101113.44;;;10.59;54.83
47742;BME280;33504;52.066;6.096;2022-12-26T10:33:50;101109.73;;;11.34;54.49
47742;BME280;33504;52.066;6.096;2022-12-26T10:36:28;101117.50;;;9.98;55.73
47742;BME280;33504;52.066;6.096;2022-12-26T10:38:58;101117.22;;;10.78;55.16
47742;BME280;33504;52.066;6.096;2022-12-26T10:41:33;101114.79;;;11.13;54.21
47742;BME280;33504;52.066;6.096;2022-12-26T10:44:02;101128.26;;;10.85;53.92
47742;BME280;33504;52.066;6.096;2022-12-26T10:46:40;101133.66;;;10.58;54.26
47742;BME280;33504;52.066;6.096;2022-12-26T10:49:12;101129.22;;;10.69;54.27
47742;BME280;33504;52.066;6.096;2022-12-26T10:51:41;101139.22;;;10.57;54.28
47742;BME280;33504;52.066;6.096;2022-12-26T10:54:12;101155.18;;;10.43;54.31
47742;BME280;33504;52.066;6.096;2022-12-26T10:56:39;101144.70;;;9.95;54.60
47742;BME280;33504;52.066;6.096;2022-12-26T10:59:12;101165.51;;;10.46;53.54
47742;BME280;33504;52.066;6.096;2022-12-26T11:01:41;101170.48;;;10.41;53.47
47742;BME280;33504;52.066;6.096;2022-12-26T11:04:15;101175.34;;;9.98;52.79
47742;BME280;33504;52.066;6.096;2022-12-26T11:06:43;101195.08;;;9.78;52.94
47742;BME280;33504;52.066;6.096;2022-12-26T11:09:28;101196.08;;;9.97;51.88
47742;BME280;33504;52.066;6.096;2022-12-26T11:11:59;101208.24;;;9.70;52.34
47742;BME280;33504;52.066;6.096;2022-12-26T11:14:31;101210.35;;;9.93;51.23
47742;BME280;33504;52.066;6.096;2022-12-26T11:17:02;101224.90;;;9.80;51.32
47742;BME280;33504;52.066;6.096;2022-12-26T11:19:32;101216.59;;;10.08;51.16
47742;BME280;33504;52.066;6.096;2022-12-26T11:22:22;101223.15;;;9.84;50.81
47742;BME280;33504;52.066;6.096;2022-12-26T11:25:25;101232.36;;;10.72;49.90
47742;BME280;33504;52.066;6.096;2022-12-26T11:27:54;101229.92;;;9.77;49.99
47742;BME280;33504;52.066;6.096;2022-12-26T11:30:25;101220.73;;;9.93;49.46
47742;BME280;33504;52.066;6.096;2022-12-26T11:33:16;101227.75;;;9.96;49.15
47742;BME280;33504;52.066;6.096;2022-12-26T11:35:50;101231.84;;;10.01;49.03
47742;BME280;33504;52.066;6.096;2022-12-26T11:38:20;101246.09;;;9.97;48.85
47742;BME280;33504;52.066;6.096;2022-12-26T11:40:48;101242.34;;;10.28;48.59
47742;BME280;33504;52.066;6.096;2022-12-26T11:43:17;101252.35;;;10.59;48.09
47742;BME280;33504;52.066;6.096;2022-12-26T11:45:48;101264.04;;;10.31;47.87
47742;BME280;33504;52.066;6.096;2022-12-26T11:48:20;101264.45;;;10.27;47.09
47742;BME280;33504;52.066;6.096;2022-12-26T11:50:49;101261.59;;;10.07;47.46
47742;BME280;33504;52.066;6.096;2022-12-26T11:53:19;101266.50;;;10.34;47.10
47742;BME280;33504;52.066;6.096;2022-12-26T11:55:58;101280.81;;;10.42;47.12
47742;BME280;33504;52.066;6.096;2022-12-26T11:58:27;101289.96;;;10.40;47.19
47742;BME280;33504;52.066;6.096;2022-12-26T12:01:06;101289.70;;;10.75;47.40
47742;BME280;33504;52.066;6.096;2022-12-26T12:03:35;101291.39;;;10.93;46.75
47742;BME280;33504;52.066;6.096;2022-12-26T12:06:21;101297.84;;;10.74;45.86
47742;BME280;33504;52.066;6.096;2022-12-26T12:08:57;101310.63;;;10.74;46.18
47742;BME280;33504;52.066;6.096;2022-12-26T12:11:35;101303.01;;;10.35;45.72
47742;BME280;33504;52.066;6.096;2022-12-26T12:14:15;101305.76;;;10.89;45.75
47742;BME280;33504;52.066;6.096;2022-12-26T12:16:54;101304.01;;;10.79;45.68
47742;BME280;33504;52.066;6.096;2022-12-26T12:19:37;101314.62;;;11.34;45.57
47742;BME280;33504;52.066;6.096;2022-12-26T12:22:20;101315.76;;;10.43;45.29
47742;BME280;33504;52.066;6.096;2022-12-26T12:24:57;101317.03;;;10.68;45.15
47742;BME280;33504;52.066;6.096;2022-12-26T12:27:29;101322.91;;;10.29;45.48
47742;BME280;33504;52.066;6.096;2022-12-26T12:30:14;101323.62;;;10.06;45.23
47742;BME280;33504;52.066;6.096;2022-12-26T12:32:53;101321.56;;;10.84;44.93
47742;BME280;33504;52.066;6.096;2022-12-26T12:35:34;101322.60;;;10.49;45.28
47742;BME280;33504;52.066;6.096;2022-12-26T12:38:25;101321.28;;;10.69;45.04
47742;BME280;33504;52.066;6.096;2022-12-26T12:41:02;101325.49;;;10.78;44.87
47742;BME280;33504;52.066;6.096;2022-12-26T12:43:36;101321.93;;;10.66;44.75
47742;BME280;33504;52.066;6.096;2022-12-26T12:46:11;101322.76;;;10.46;45.00
47742;BME280;33504;52.066;6.096;2022-12-26T12:49:10;101325.27;;;10.47;44.93
47742;BME280;33504;52.066;6.096;2022-12-26T12:51:47;101331.74;;;10.24;44.74
47742;BME280;33504;52.066;6.096;2022-12-26T12:54:32;101339.60;;;10.69;44.45
47742;BME280;33504;52.066;6.096;2022-12-26T12:57:12;101339.64;;;10.57;44.89
47742;BME280;33504;52.066;6.096;2022-12-26T12:59:51;101345.24;;;10.51;45.01
47742;BME280;33504;52.066;6.096;2022-12-26T13:02:27;101345.23;;;10.39;45.00
47742;BME280;33504;52.066;6.096;2022-12-26T13:05:03;101345.30;;;10.65;45.00
47742;BME280;33504;52.066;6.096;2022-12-26T13:07:36;101343.08;;;10.33;44.73
47742;BME280;33504;52.066;6.096;2022-12-26T13:10:14;101339.76;;;10.41;44.75
47742;BME280;33504;52.066;6.096;2022-12-26T13:12:44;101343.96;;;10.35;44.30
47742;BME280;33504;52.066;6.096;2022-12-26T13:15:22;101341.62;;;10.32;44.29